Time;durP1;ratioP1;P1;durP2;ratioP2;P2;SDS_P1;SDS_P2;PMS_P1;PMS_P2;Temp;Humidity;BMP_temperature;BMP_pressure;BME280_temperature;BME280_humidity;BME280_pressure;Samples;Min_cycle;Max_cycle;Signal;HPM_P1;HPM_P2
2021/05/25 00:01:07;;;;;;;4.30;3.90;;;18.10;99.90;;;;;;5145621;27;20448;-39
2021/05/25 00:03:41;;;;;;;5.10;4.53;;;17.90;99.90;;;;;;5134997;27;20451;-39
2021/05/25 00:06:12;;;;;;;5.10;4.67;;;17.90;99.90;;;;;;5147095;27;20440;-39
2021/05/25 00:08:42;;;;;;;5.17;4.77;;;17.60;99.90;;;;;;5145611;27;20501;-40
2021/05/25 00:11:13;;;;;;;5.13;4.60;;;17.50;99.90;;;;;;5145401;27;20492;-40
2021/05/25 00:13:43;;;;;;;4.97;4.57;;;17.40;99.90;;;;;;5144667;27;20436;-38
2021/05/25 00:16:14;;;;;;;4.90;4.30;;;17.10;99.90;;;;;;5146126;27;20456;-39
2021/05/25 00:18:45;;;;;;;7.47;6.77;;;17.30;99.90;;;;;;5144938;27;20479;-41
2021/05/25 00:21:16;;;;;;;6.30;5.70;;;17.20;99.90;;;;;;5134969;27;20576;-40
2021/05/25 00:23:46;;;;;;;4.77;4.37;;;17.20;99.90;;;;;;5144691;27;20452;-42
2021/05/25 00:26:17;;;;;;;5.23;4.83;;;17.10;99.90;;;;;;5145137;27;20475;-40
2021/05/25 00:28:47;;;;;;;5.17;4.70;;;17.30;99.90;;;;;;5142850;27;20447;-41
2021/05/25 00:31:18;;;;;;;5.70;5.30;;;17.20;99.90;;;;;;5143987;27;20536;-41
2021/05/25 00:33:49;;;;;;;4.87;4.47;;;17.20;99.90;;;;;;5143915;27;20970;-39
2021/05/25 00:36:21;;;;;;;5.20;4.70;;;17.20;99.90;;;;;;5136704;27;20461;-41
2021/05/25 00:38:52;;;;;;;4.40;4.10;;;17.20;99.90;;;;;;5143825;27;20453;-41
2021/05/25 00:41:23;;;;;;;5.43;4.93;;;17.30;99.90;;;;;;5141521;27;20453;-39
2021/05/25 00:43:54;;;;;;;4.57;4.20;;;17.40;99.90;;;;;;5140650;27;20505;-39
2021/05/25 00:46:25;;;;;;;5.27;4.53;;;17.70;99.90;;;;;;5145225;27;20452;-40
2021/05/25 00:48:56;;;;;;;4.90;4.53;;;17.80;99.90;;;;;;5143636;27;20585;-39
2021/05/25 00:51:27;;;;;;;5.90;4.57;;;17.70;99.90;;;;;;5144395;27;20510;-39
2021/05/25 00:53:58;;;;;;;5.07;4.57;;;17.50;99.90;;;;;;5144154;27;20518;-40
2021/05/25 00:56:28;;;;;;;7.70;4.63;;;17.50;99.90;;;;;;5144739;27;20531;-40
2021/05/25 00:58:59;;;;;;;5.00;4.60;;;17.60;99.90;;;;;;5136213;27;20441;-36
2021/05/25 01:01:30;;;;;;;5.40;5.00;;;17.70;99.90;;;;;;5145193;27;20448;-41
2021/05/25 01:04:01;;;;;;;5.47;5.07;;;17.70;99.90;;;;;;5143792;27;20492;-39
2021/05/25 01:06:33;;;;;;;6.03;5.53;;;17.70;99.90;;;;;;5144710;27;20465;-41
2021/05/25 01:09:04;;;;;;;5.60;5.20;;;17.70;99.90;;;;;;5144622;27;20505;-41
2021/05/25 01:11:37;;;;;;;4.27;3.97;;;17.70;99.90;;;;;;5144746;27;20545;-40
2021/05/25 01:14:09;;;;;;;4.50;4.20;;;17.40;99.90;;;;;;5145146;27;20776;-40
2021/05/25 01:16:39;;;;;;;5.37;4.97;;;17.40;99.90;;;;;;5145498;27;20440;-41
2021/05/25 01:19:11;;;;;;;3.07;2.63;;;17.30;99.90;;;;;;5143386;27;20472;-41
2021/05/25 01:21:43;;;;;;;2.87;2.67;;;17.30;99.90;;;;;;5144916;27;20463;-41
2021/05/25 01:24:13;;;;;;;3.13;2.93;;;17.20;99.90;;;;;;5144567;27;20452;-41
2021/05/25 01:26:44;;;;;;;3.07;2.87;;;17.30;99.90;;;;;;5143961;27;20441;-41
2021/05/25 01:29:14;;;;;;;3.03;2.83;;;17.20;99.90;;;;;;5143898;27;20486;-40
2021/05/25 01:31:45;;;;;;;2.30;2.10;;;17.30;99.90;;;;;;5144444;27;20484;-41
2021/05/25 01:34:15;;;;;;;2.73;2.30;;;17.50;99.90;;;;;;5144506;27;20810;-41
2021/05/25 01:36:47;;;;;;;2.67;2.47;;;17.60;99.90;;;;;;5144389;27;20452;-38
2021/05/25 01:39:18;;;;;;;2.70;2.50;;;17.50;99.90;;;;;;5143659;27;20449;-39
2021/05/25 01:41:53;;;;;;;2.13;2.00;;;17.30;99.90;;;;;;5144025;27;20452;-40
2021/05/25 01:44:23;;;;;;;2.10;2.00;;;17.30;99.90;;;;;;5139289;27;20444;-39
2021/05/25 01:46:55;;;;;;;6.40;5.80;;;17.30;99.90;;;;;;5133585;27;20452;-38
2021/05/25 01:49:26;;;;;;;3.83;3.30;;;17.20;99.90;;;;;;5143185;27;20505;-39
2021/05/25 01:51:57;;;;;;;5.60;5.10;;;17.20;99.90;;;;;;5144677;27;20423;-39
2021/05/25 01:54:28;;;;;;;6.27;5.87;;;17.30;99.90;;;;;;5143648;27;20522;-40
2021/05/25 01:56:58;;;;;;;5.90;5.50;;;17.10;99.90;;;;;;5128866;27;20485;-39
2021/05/25 01:59:30;;;;;;;3.97;3.60;;;17.10;99.90;;;;;;5146560;27;20448;-39
2021/05/25 02:02:01;;;;;;;2.50;2.30;;;17.00;99.90;;;;;;5143650;27;20464;-41
2021/05/25 02:04:32;;;;;;;2.27;2.10;;;17.20;99.90;;;;;;5143611;27;20579;-40
2021/05/25 02:07:04;;;;;;;1.50;1.40;;;17.00;99.90;;;;;;5143792;27;20420;-40
2021/05/25 02:09:38;;;;;;;2.10;1.90;;;17.10;99.90;;;;;;5143511;27;20453;-39
2021/05/25 02:12:09;;;;;;;1.30;1.20;;;16.90;99.90;;;;;;5143578;27;20448;-41
2021/05/25 02:14:40;;;;;;;2.60;1.73;;;16.80;99.90;;;;;;5143146;27;20585;-40
2021/05/25 02:17:11;;;;;;;3.70;2.60;;;16.70;99.90;;;;;;5143629;27;20444;-41
2021/05/25 02:19:41;;;;;;;5.30;4.27;;;16.80;99.90;;;;;;5142933;27;20445;-39
2021/05/25 02:22:13;;;;;;;4.47;3.77;;;16.80;99.90;;;;;;5143315;27;20445;-40
2021/05/25 02:24:43;;;;;;;4.50;2.60;;;17.00;99.90;;;;;;5143093;27;20453;-40
2021/05/25 02:27:14;;;;;;;8.73;7.83;;;16.90;99.90;;;;;;5144053;28;20448;-36
2021/05/25 02:29:44;;;;;;;2.27;2.07;;;16.90;99.90;;;;;;5142115;28;21030;-40
2021/05/25 02:32:15;;;;;;;2.20;1.20;;;16.90;99.90;;;;;;5143083;28;20478;-39
2021/05/25 02:34:45;;;;;;;1.80;1.33;;;16.90;99.90;;;;;;5143305;28;20483;-40
2021/05/25 02:37:17;;;;;;;1.60;1.50;;;16.90;99.90;;;;;;5143635;28;20505;-39
2021/05/25 02:39:47;;;;;;;1.80;1.70;;;16.80;99.90;;;;;;5143006;28;20474;-39
2021/05/25 02:42:18;;;;;;;2.97;1.63;;;16.80;99.90;;;;;;5143512;28;20437;-39
2021/05/25 02:44:48;;;;;;;2.00;1.90;;;16.70;99.90;;;;;;5132615;28;20460;-39
2021/05/25 02:47:19;;;;;;;1.80;1.57;;;16.80;99.90;;;;;;5142827;28;20475;-41
2021/05/25 02:49:50;;;;;;;1.40;1.30;;;16.70;99.90;;;;;;5137787;28;20480;-41
2021/05/25 02:52:22;;;;;;;2.20;1.80;;;16.70;99.90;;;;;;5143149;28;20449;-40
2021/05/25 02:54:52;;;;;;;1.33;1.23;;;16.60;99.90;;;;;;5143054;27;20437;-39
2021/05/25 02:57:22;;;;;;;1.50;1.30;;;16.60;99.90;;;;;;5147293;27;20481;-38
2021/05/25 02:59:53;;;;;;;1.60;1.50;;;16.60;99.90;;;;;;5146885;27;20509;-40
2021/05/25 03:02:23;;;;;;;3.97;1.73;;;16.60;99.90;;;;;;5145235;27;20461;-39
2021/05/25 03:04:54;;;;;;;1.50;1.40;;;16.50;99.90;;;;;;5147357;27;20501;-40
2021/05/25 03:07:25;;;;;;;1.77;1.60;;;16.40;99.90;;;;;;5146045;27;20791;-40
2021/05/25 03:09:56;;;;;;;1.50;1.40;;;16.40;99.90;;;;;;5145986;27;20814;-35
2021/05/25 03:12:27;;;;;;;1.70;1.60;;;16.30;99.90;;;;;;5140968;27;20456;-37
2021/05/25 03:14:57;;;;;;;1.50;1.40;;;16.30;99.90;;;;;;5145553;27;20463;-40
2021/05/25 03:17:28;;;;;;;3.00;1.60;;;16.20;99.90;;;;;;5147293;27;20445;-41
2021/05/25 03:19:58;;;;;;;1.80;1.70;;;16.20;99.90;;;;;;5146531;27;20441;-40
2021/05/25 03:22:30;;;;;;;1.60;1.50;;;16.10;99.90;;;;;;5147205;27;20441;-40
2021/05/25 03:25:01;;;;;;;1.80;1.70;;;16.00;99.90;;;;;;5147859;27;20448;-40
2021/05/25 03:27:32;;;;;;;2.00;1.90;;;16.00;99.90;;;;;;5146805;27;20440;-40
2021/05/25 03:30:03;;;;;;;2.10;1.90;;;16.10;99.90;;;;;;5145084;27;20440;-40
2021/05/25 03:32:34;;;;;;;2.47;2.27;;;16.10;99.90;;;;;;5146334;27;20460;-39
2021/05/25 03:35:07;;;;;;;2.20;2.10;;;16.10;99.90;;;;;;5146708;27;20520;-39
2021/05/25 03:37:39;;;;;;;1.93;1.83;;;16.00;99.90;;;;;;5146807;27;20505;-39
2021/05/25 03:40:12;;;;;;;1.90;1.80;;;16.00;99.90;;;;;;5139074;27;20873;-41
2021/05/25 03:42:46;;;;;;;1.87;1.77;;;15.80;99.90;;;;;;5146670;27;20445;-39
2021/05/25 03:45:18;;;;;;;2.60;2.40;;;15.80;99.90;;;;;;5135779;27;20448;-40
2021/05/25 03:47:49;;;;;;;3.20;2.40;;;15.70;99.90;;;;;;5147360;27;20449;-39
2021/05/25 03:50:20;;;;;;;2.50;2.30;;;15.80;99.90;;;;;;5145693;27;20901;-38
2021/05/25 03:52:54;;;;;;;2.57;2.47;;;15.80;99.90;;;;;;5146460;27;20502;-39
2021/05/25 03:55:33;;;;;;;2.40;2.20;;;15.80;99.90;;;;;;5146253;27;20490;-39
2021/05/25 04:00:53;;;;;;;3.23;2.77;;;15.70;99.90;;;;;;5145155;27;20441;-36
2021/05/25 04:03:24;;;;;;;3.23;3.03;;;15.70;99.90;;;;;;5147138;27;20449;-37
2021/05/25 04:05:54;;;;;;;3.30;3.00;;;15.70;99.90;;;;;;5143094;27;20476;-37
2021/05/25 04:08:26;;;;;;;3.37;3.17;;;15.70;99.90;;;;;;5144839;27;20449;-38
2021/05/25 04:10:56;;;;;;;3.40;3.20;;;15.60;99.90;;;;;;5145030;27;20559;-37
2021/05/25 04:13:27;;;;;;;3.23;3.03;;;15.60;99.90;;;;;;5145572;27;20925;-40
2021/05/25 04:15:58;;;;;;;2.83;2.63;;;15.60;99.90;;;;;;5145742;27;20445;-35
2021/05/25 04:18:28;;;;;;;2.83;2.63;;;15.50;99.90;;;;;;5145558;27;20476;-38
2021/05/25 04:20:58;;;;;;;2.50;2.40;;;15.50;99.90;;;;;;5145815;27;20474;-38
2021/05/25 04:23:30;;;;;;;2.60;2.50;;;15.50;99.90;;;;;;5145809;27;20502;-39
2021/05/25 04:26:01;;;;;;;2.60;2.40;;;15.50;99.90;;;;;;5146092;27;20513;-37
2021/05/25 04:28:32;;;;;;;2.40;2.30;;;15.40;99.90;;;;;;5142849;27;20445;-39
2021/05/25 04:31:02;;;;;;;3.17;2.97;;;15.40;99.90;;;;;;5142848;27;20485;-40
2021/05/25 04:33:33;;;;;;;2.67;2.47;;;15.30;99.90;;;;;;5144871;27;20472;-38
2021/05/25 04:36:04;;;;;;;2.83;2.63;;;15.30;99.90;;;;;;5145983;27;20468;-39
2021/05/25 04:38:35;;;;;;;2.70;2.57;;;15.20;99.90;;;;;;5128385;27;20478;-38
2021/05/25 04:41:06;;;;;;;3.00;2.80;;;15.20;99.90;;;;;;5145772;27;20445;-40
2021/05/25 04:43:36;;;;;;;3.10;2.90;;;15.20;99.90;;;;;;5142632;27;20493;-40
2021/05/25 04:46:07;;;;;;;3.13;2.87;;;15.10;99.90;;;;;;5145437;27;20602;-39
2021/05/25 04:48:38;;;;;;;3.80;3.50;;;15.20;99.90;;;;;;5144834;27;20490;-39
2021/05/25 04:51:09;;;;;;;2.90;2.80;;;15.20;99.90;;;;;;5145223;27;21052;-38
2021/05/25 04:53:40;;;;;;;3.37;3.07;;;15.20;99.90;;;;;;5144440;27;20432;-39
2021/05/25 04:56:11;;;;;;;4.30;3.53;;;15.10;99.90;;;;;;5143993;27;20502;-38
2021/05/25 04:58:42;;;;;;;3.30;3.00;;;15.10;99.90;;;;;;5143247;27;20461;-37
2021/05/25 05:01:13;;;;;;;3.40;3.13;;;15.10;99.90;;;;;;5144955;27;20472;-39
2021/05/25 05:03:43;;;;;;;4.00;3.60;;;14.90;99.90;;;;;;5144434;27;20448;-37
2021/05/25 05:06:14;;;;;;;3.50;3.30;;;15.00;99.90;;;;;;5144522;27;20472;-40
2021/05/25 05:08:46;;;;;;;3.80;3.50;;;15.10;99.90;;;;;;5145683;27;20481;-39
2021/05/25 05:11:16;;;;;;;4.60;3.90;;;15.10;99.90;;;;;;5144119;27;20481;-39
2021/05/25 05:13:47;;;;;;;3.80;3.60;;;15.20;99.90;;;;;;5142911;27;20445;-39
2021/05/25 05:16:17;;;;;;;3.60;3.40;;;15.20;99.90;;;;;;5146076;27;20518;-39
2021/05/25 05:18:48;;;;;;;4.10;3.80;;;15.10;99.90;;;;;;5144970;27;20453;-38
2021/05/25 05:21:18;;;;;;;4.10;3.80;;;15.10;99.90;;;;;;5143915;27;20457;-39
2021/05/25 05:23:50;;;;;;;3.67;3.37;;;15.10;99.90;;;;;;5144093;27;20548;-39
2021/05/25 05:26:20;;;;;;;3.63;3.33;;;15.10;99.90;;;;;;5144435;27;20437;-39
2021/05/25 05:28:51;;;;;;;3.20;3.00;;;15.10;99.90;;;;;;5143391;27;20502;-39
2021/05/25 05:31:21;;;;;;;3.40;3.20;;;15.00;99.90;;;;;;5144761;27;20642;-39
2021/05/25 05:33:52;;;;;;;3.77;3.47;;;15.00;99.90;;;;;;5144197;27;20460;-38
2021/05/25 05:36:22;;;;;;;3.40;3.20;;;14.90;99.90;;;;;;5144283;27;20478;-39
2021/05/25 05:38:54;;;;;;;3.67;3.47;;;14.90;99.90;;;;;;5140689;27;20468;-36
2021/05/25 05:41:24;;;;;;;3.73;3.43;;;14.90;99.90;;;;;;5142060;27;20449;-38
2021/05/25 05:43:55;;;;;;;3.70;3.40;;;14.90;99.90;;;;;;5141531;27;20452;-39
2021/05/25 05:46:27;;;;;;;5.70;3.90;;;14.90;99.90;;;;;;5143504;27;20502;-39
2021/05/25 05:48:58;;;;;;;3.93;3.63;;;15.00;99.90;;;;;;5143854;27;20488;-38
2021/05/25 05:51:30;;;;;;;4.00;3.67;;;15.00;99.90;;;;;;5128072;28;20496;-39
2021/05/25 05:54:01;;;;;;;3.90;3.60;;;14.90;99.90;;;;;;5143697;28;20441;-39
2021/05/25 05:56:32;;;;;;;3.33;3.03;;;14.90;99.90;;;;;;5142606;28;20449;-37
2021/05/25 05:59:03;;;;;;;3.50;3.20;;;14.80;99.90;;;;;;5139847;28;20501;-38
2021/05/25 06:01:33;;;;;;;4.60;3.77;;;14.80;99.90;;;;;;5143496;28;20568;-39
2021/05/25 06:04:04;;;;;;;3.53;3.20;;;14.70;99.90;;;;;;5142526;28;20445;-39
2021/05/25 06:06:34;;;;;;;3.67;2.93;;;14.70;99.90;;;;;;5141897;28;20475;-37
2021/05/25 06:09:07;;;;;;;3.30;3.00;;;14.70;99.90;;;;;;5143476;28;20513;-41
2021/05/25 06:11:38;;;;;;;3.73;3.40;;;14.70;99.90;;;;;;5129626;28;20944;-34
2021/05/25 06:14:08;;;;;;;3.20;3.00;;;14.60;99.90;;;;;;5142331;28;20453;-39
2021/05/25 06:16:38;;;;;;;3.20;3.00;;;14.70;99.90;;;;;;5143123;28;20536;-39
2021/05/25 06:19:09;;;;;;;3.23;2.93;;;14.70;99.90;;;;;;5142690;28;20601;-39
2021/05/25 06:21:43;;;;;;;4.43;4.03;;;14.70;99.90;;;;;;5142945;28;20454;-38
2021/05/25 06:24:15;;;;;;;3.80;3.50;;;14.70;99.90;;;;;;5143079;28;20440;-39
2021/05/25 06:26:46;;;;;;;3.57;3.30;;;14.80;99.90;;;;;;5137976;28;20456;-39
2021/05/25 06:29:17;;;;;;;3.63;3.33;;;14.70;99.90;;;;;;5140897;27;20449;-39
2021/05/25 06:31:47;;;;;;;4.70;3.70;;;14.70;99.90;;;;;;5140460;28;20498;-38
2021/05/25 06:34:17;;;;;;;3.43;3.13;;;14.70;99.90;;;;;;5142686;28;20476;-39
2021/05/25 06:36:48;;;;;;;3.60;3.30;;;14.70;99.90;;;;;;5142811;28;20482;-37
2021/05/25 06:39:20;;;;;;;3.70;3.40;;;14.60;99.90;;;;;;5142022;28;20451;-38
2021/05/25 06:41:50;;;;;;;3.57;3.27;;;14.60;99.90;;;;;;5142343;28;20441;-38
2021/05/25 06:44:21;;;;;;;3.63;3.37;;;14.60;99.90;;;;;;5140045;28;20494;-39
2021/05/25 06:46:51;;;;;;;4.77;3.63;;;14.60;99.90;;;;;;5137175;28;20444;-38
2021/05/25 06:49:23;;;;;;;4.20;3.80;;;14.60;99.90;;;;;;4454044;28;19390087;-39
2021/05/25 06:51:53;;;;;;;3.60;3.30;;;14.60;99.90;;;;;;5143143;28;20211;-39
2021/05/25 06:54:25;;;;;;;4.93;3.87;;;14.60;99.90;;;;;;5143060;28;20445;-38
2021/05/25 06:56:56;;;;;;;3.30;3.10;;;14.50;99.90;;;;;;5143616;28;20449;-37
2021/05/25 06:59:26;;;;;;;3.97;3.67;;;14.50;99.90;;;;;;5142214;28;20473;-37
2021/05/25 07:01:57;;;;;;;3.50;3.20;;;14.50;99.90;;;;;;5143518;28;20481;-39
2021/05/25 07:04:27;;;;;;;3.47;3.17;;;14.40;99.90;;;;;;5142291;28;20437;-37
2021/05/25 07:06:58;;;;;;;3.50;3.30;;;14.40;99.90;;;;;;5131182;28;20497;-38
2021/05/25 07:09:29;;;;;;;2.87;2.67;;;14.40;99.90;;;;;;5143296;28;20452;-37
2021/05/25 07:12:02;;;;;;;4.37;2.80;;;14.40;99.90;;;;;;5143109;28;20509;-35
2021/05/25 07:14:37;;;;;;;3.37;3.00;;;14.40;99.90;;;;;;5141522;28;20487;-36
2021/05/25 07:17:08;;;;;;;3.50;3.20;;;14.40;99.90;;;;;;5143064;28;20800;-39
2021/05/25 07:19:39;;;;;;;3.67;3.37;;;14.40;99.90;;;;;;5142982;28;20456;-36
2021/05/25 07:22:10;;;;;;;3.87;3.67;;;14.50;99.90;;;;;;5143183;28;20881;-39
2021/05/25 07:24:41;;;;;;;3.70;3.37;;;14.50;99.90;;;;;;5140537;28;20504;-37
2021/05/25 07:27:12;;;;;;;4.60;3.60;;;14.40;99.90;;;;;;5142755;28;20520;-36
2021/05/25 07:29:42;;;;;;;3.80;3.43;;;14.40;99.90;;;;;;5142031;28;20501;-38
2021/05/25 07:32:13;;;;;;;3.83;3.60;;;14.40;99.90;;;;;;5142567;28;20484;-38
2021/05/25 07:34:44;;;;;;;5.00;3.97;;;14.50;99.90;;;;;;5142785;28;20445;-36
2021/05/25 07:37:15;;;;;;;4.10;3.60;;;14.50;99.90;;;;;;5137823;28;20448;-37
2021/05/25 07:39:46;;;;;;;3.97;3.67;;;14.50;99.90;;;;;;5143232;28;20477;-39
2021/05/25 07:42:17;;;;;;;4.07;3.70;;;14.50;99.90;;;;;;5145081;27;20477;-39
2021/05/25 07:44:47;;;;;;;4.07;3.77;;;14.50;99.90;;;;;;5137871;27;20493;-38
2021/05/25 07:47:18;;;;;;;4.60;4.20;;;14.50;99.90;;;;;;5146953;27;20473;-37
2021/05/25 07:49:49;;;;;;;4.07;3.77;;;14.40;99.90;;;;;;5147194;27;20468;-35
2021/05/25 07:52:19;;;;;;;3.50;3.30;;;14.40;99.90;;;;;;5146466;27;20476;-35
2021/05/25 07:54:51;;;;;;;4.37;3.97;;;14.30;99.90;;;;;;5147231;27;20441;-37
2021/05/25 07:57:22;;;;;;;4.80;4.30;;;14.30;99.90;;;;;;5146593;27;20449;-38
2021/05/25 07:59:53;;;;;;;3.90;3.60;;;14.30;99.90;;;;;;5145325;27;20531;-37
2021/05/25 08:02:23;;;;;;;4.30;4.00;;;14.30;99.90;;;;;;5142213;27;20851;-39
2021/05/25 08:04:54;;;;;;;4.50;4.20;;;14.30;99.90;;;;;;5146180;27;20453;-38
2021/05/25 08:07:24;;;;;;;4.07;3.77;;;14.40;99.90;;;;;;5145890;27;20525;-35
2021/05/25 08:09:56;;;;;;;4.27;3.97;;;14.40;99.90;;;;;;5146420;27;20449;-39
2021/05/25 08:12:26;;;;;;;4.90;4.50;;;14.30;99.90;;;;;;5146515;27;20476;-38
2021/05/25 08:14:58;;;;;;;4.00;3.70;;;14.20;99.90;;;;;;5146513;27;20445;-40
2021/05/25 08:17:40;;;;;;;4.70;4.30;;;14.30;99.90;;;;;;5145559;27;20445;-39
2021/05/25 08:20:16;;;;;;;6.60;5.13;;;14.30;99.90;;;;;;5145665;27;20525;-37
2021/05/25 08:23:10;;;;;;;3.90;3.60;;;14.30;99.90;;;;;;5145915;27;20840;-39
2021/05/25 08:25:43;;;;;;;4.30;3.90;;;14.20;99.90;;;;;;5145546;27;20448;-38
2021/05/25 08:28:14;;;;;;;4.23;3.93;;;14.20;99.90;;;;;;5145607;27;20506;-36
2021/05/25 08:30:45;;;;;;;3.70;3.40;;;14.30;99.90;;;;;;5143603;27;20979;-38
2021/05/25 08:33:18;;;;;;;4.23;3.93;;;14.30;99.90;;;;;;5144633;27;20488;-39
2021/05/25 08:35:50;;;;;;;4.37;4.07;;;14.20;99.90;;;;;;5145915;27;20444;-38
2021/05/25 08:38:22;;;;;;;4.40;4.10;;;14.30;99.90;;;;;;5145478;27;20449;-38
2021/05/25 08:40:55;;;;;;;3.73;3.53;;;14.30;99.90;;;;;;5145697;27;20475;-38
2021/05/25 08:43:26;;;;;;;4.60;4.20;;;14.20;99.90;;;;;;5134828;27;20452;-38
2021/05/25 08:45:56;;;;;;;4.50;4.20;;;14.20;99.90;;;;;;5145065;27;20531;-38
2021/05/25 08:48:29;;;;;;;4.43;4.13;;;14.20;99.90;;;;;;5144832;27;20452;-38
2021/05/25 08:51:02;;;;;;;4.60;4.20;;;14.20;99.90;;;;;;5131080;27;20437;-38
2021/05/25 08:53:32;;;;;;;3.83;3.53;;;14.20;99.90;;;;;;5144610;27;20473;-39
2021/05/25 08:56:06;;;;;;;4.20;3.90;;;14.20;99.90;;;;;;5145559;27;20532;-37
2021/05/25 08:58:37;;;;;;;4.13;3.83;;;14.20;99.90;;;;;;5144360;27;20544;-39
2021/05/25 09:01:07;;;;;;;3.90;3.60;;;14.20;99.90;;;;;;5145172;27;20452;-35
2021/05/25 09:03:58;;;;;;;3.53;3.30;;;14.20;99.90;;;;;;5144201;27;20441;-38
2021/05/25 09:06:42;;;;;;;3.50;3.20;;;14.20;99.90;;;;;;5141708;27;20441;-39
2021/05/25 09:09:14;;;;;;;3.60;3.30;;;14.20;99.90;;;;;;5144799;27;20528;-38
2021/05/25 09:12:03;;;;;;;3.30;3.10;;;14.20;99.90;;;;;;5145673;27;20985;-33
2021/05/25 09:14:34;;;;;;;3.63;3.33;;;14.20;99.90;;;;;;5143650;27;20493;-39
2021/05/25 09:17:22;;;;;;;3.60;3.40;;;14.10;99.90;;;;;;5139862;27;20444;-37
2021/05/25 09:19:53;;;;;;;3.93;3.47;;;14.10;99.90;;;;;;5144681;27;20449;-38
2021/05/25 09:22:28;;;;;;;3.90;3.60;;;14.00;99.90;;;;;;5143463;27;20440;-37
2021/05/25 09:25:05;;;;;;;3.73;3.43;;;14.00;99.90;;;;;;5145169;27;20467;-37
2021/05/25 09:27:39;;;;;;;3.80;3.50;;;14.00;99.90;;;;;;5144595;27;20448;-37
2021/05/25 09:30:29;;;;;;;3.80;3.50;;;14.10;99.90;;;;;;5144218;27;20440;-39
2021/05/25 09:33:01;;;;;;;4.13;3.83;;;14.00;99.90;;;;;;5144893;27;20460;-38
2021/05/25 09:35:34;;;;;;;3.50;3.30;;;14.10;99.90;;;;;;5144928;27;20448;-38
2021/05/25 09:38:09;;;;;;;4.17;3.77;;;14.10;99.90;;;;;;5144350;27;20493;-39
2021/05/25 09:40:46;;;;;;;3.70;3.40;;;14.10;99.90;;;;;;5144602;27;20512;-38
2021/05/25 09:43:20;;;;;;;4.07;3.77;;;14.10;99.90;;;;;;5133963;27;20441;-38
2021/05/25 09:45:59;;;;;;;3.73;3.40;;;14.10;99.90;;;;;;5143969;27;20474;-38
2021/05/25 09:48:31;;;;;;;3.73;3.50;;;14.10;99.90;;;;;;5136566;27;20437;-39
2021/05/25 09:51:02;;;;;;;3.53;3.33;;;14.10;99.90;;;;;;5141262;27;20445;-38
2021/05/25 09:53:33;;;;;;;3.67;3.37;;;14.00;99.90;;;;;;5144687;27;20541;-41
2021/05/25 09:56:04;;;;;;;4.20;3.87;;;14.00;99.90;;;;;;5144917;27;20449;-39
2021/05/25 09:58:42;;;;;;;3.60;3.40;;;14.00;99.90;;;;;;5143599;27;20505;-38
2021/05/25 10:01:13;;;;;;;3.60;3.30;;;14.00;99.90;;;;;;5141621;27;20478;-39
2021/05/25 10:03:45;;;;;;;3.40;3.20;;;14.00;99.90;;;;;;5143423;27;20456;-36
2021/05/25 10:06:15;;;;;;;4.07;3.70;;;13.90;99.90;;;;;;5144176;27;20474;-39
2021/05/25 10:08:48;;;;;;;3.70;3.50;;;14.00;99.90;;;;;;5143709;27;20497;-38
2021/05/25 10:11:20;;;;;;;3.40;3.10;;;14.00;99.90;;;;;;5144793;27;20479;-37
2021/05/25 10:13:52;;;;;;;3.97;3.67;;;14.00;99.90;;;;;;5143298;27;20488;-38
2021/05/25 10:16:27;;;;;;;3.97;3.70;;;14.00;99.90;;;;;;5143914;27;20448;-34
2021/05/25 10:19:13;;;;;;;3.73;3.00;;;13.90;99.90;;;;;;5143962;27;20444;-37
2021/05/25 10:21:46;;;;;;;3.23;3.03;;;13.90;99.90;;;;;;5143437;27;20440;-38
2021/05/25 10:24:16;;;;;;;3.63;3.10;;;13.90;99.90;;;;;;5143923;27;20548;-38
2021/05/25 10:26:47;;;;;;;3.07;2.87;;;13.80;99.90;;;;;;5144702;27;20516;-39
2021/05/25 10:29:19;;;;;;;3.83;3.53;;;13.70;99.90;;;;;;5142870;28;20444;-38
2021/05/25 10:32:00;;;;;;;3.33;3.13;;;13.80;99.90;;;;;;5132281;28;20445;-39
2021/05/25 10:34:35;;;;;;;3.70;3.40;;;13.80;99.90;;;;;;5137123;28;20513;-37
2021/05/25 10:37:15;;;;;;;3.80;3.50;;;13.70;99.90;;;;;;5144979;28;20530;-35
2021/05/25 10:39:46;;;;;;;3.00;2.80;;;13.70;99.90;;;;;;5143542;28;20452;-38
2021/05/25 10:42:33;;;;;;;3.47;3.20;;;13.70;99.90;;;;;;5141428;28;20479;-38
2021/05/25 10:45:24;;;;;;;3.37;3.10;;;13.70;99.90;;;;;;5143109;28;20524;-37
2021/05/25 10:48:03;;;;;;;3.30;3.10;;;13.70;99.90;;;;;;5141552;28;20449;-39
2021/05/25 10:50:38;;;;;;;3.60;3.30;;;13.60;99.90;;;;;;5135679;28;20469;-38
2021/05/25 10:53:25;;;;;;;4.10;3.80;;;13.60;99.90;;;;;;5143350;28;20468;-39
2021/05/25 10:55:56;;;;;;;3.87;3.60;;;13.60;99.90;;;;;;5143048;28;20495;-36
2021/05/25 10:58:33;;;;;;;3.40;3.10;;;13.60;99.90;;;;;;5144060;28;20441;-38
2021/05/25 11:01:07;;;;;;;3.70;3.40;;;13.60;99.90;;;;;;5124927;28;20472;-38
2021/05/25 11:03:38;;;;;;;3.67;3.33;;;13.60;99.90;;;;;;5143666;28;20841;-36
2021/05/25 11:06:08;;;;;;;3.20;3.00;;;13.50;99.90;;;;;;5144142;28;20456;-35
2021/05/25 11:08:41;;;;;;;2.83;2.63;;;13.50;99.90;;;;;;5143336;28;20900;-38
2021/05/25 11:11:16;;;;;;;3.80;3.60;;;13.50;99.90;;;;;;5144151;28;20457;-38
2021/05/25 11:13:51;;;;;;;3.30;3.10;;;13.40;99.90;;;;;;5143502;28;20476;-38
2021/05/25 11:16:36;;;;;;;4.47;3.43;;;13.40;99.90;;;;;;5139187;27;20449;-36
2021/05/25 11:22:16;;;;;;;3.73;3.43;;;13.40;99.90;;;;;;5145311;27;20469;-35
2021/05/25 11:24:59;;;;;;;3.40;3.20;;;13.30;99.90;;;;;;5147676;27;20448;-39
2021/05/25 11:27:34;;;;;;;3.67;3.47;;;13.30;99.90;;;;;;5147433;27;20525;-37
2021/05/25 11:30:09;;;;;;;4.23;3.83;;;13.30;99.90;;;;;;5145643;27;20448;-36
2021/05/25 11:32:42;;;;;;;3.80;3.50;;;13.30;99.90;;;;;;5146594;27;20535;-38
2021/05/25 11:35:19;;;;;;;4.17;3.87;;;13.30;99.90;;;;;;5147123;27;20444;-36
2021/05/25 11:37:53;;;;;;;3.97;3.67;;;13.30;99.90;;;;;;5147834;27;20796;-39
2021/05/25 11:40:25;;;;;;;4.40;4.07;;;13.30;99.90;;;;;;5137135;27;20461;-38
2021/05/25 11:42:56;;;;;;;3.83;3.60;;;13.30;99.90;;;;;;5145128;27;20508;-38
2021/05/25 11:45:29;;;;;;;4.77;4.30;;;13.30;99.90;;;;;;5146267;27;20440;-37
2021/05/25 11:48:01;;;;;;;3.83;3.53;;;13.30;99.90;;;;;;5147056;27;20452;-39
2021/05/25 11:50:41;;;;;;;3.70;3.43;;;13.30;99.90;;;;;;5137779;27;20476;-38
2021/05/25 11:53:19;;;;;;;4.30;4.00;;;13.40;99.90;;;;;;5146945;27;20472;-36
2021/05/25 11:55:50;;;;;;;4.77;4.37;;;13.30;99.90;;;;;;5147379;27;20531;-39
2021/05/25 11:58:23;;;;;;;4.67;4.27;;;13.30;99.90;;;;;;5147136;27;20448;-39
2021/05/25 12:00:53;;;;;;;4.53;4.20;;;13.40;99.90;;;;;;5144856;27;20444;-35
2021/05/25 12:03:27;;;;;;;4.50;4.10;;;13.40;99.90;;;;;;5146470;27;20449;-39
2021/05/25 12:05:58;;;;;;;4.50;4.20;;;13.40;99.90;;;;;;5147027;27;20433;-36
2021/05/25 12:08:28;;;;;;;4.43;4.13;;;13.50;99.90;;;;;;5146516;27;20437;-36
2021/05/25 12:10:59;;;;;;;4.60;4.20;;;13.50;99.90;;;;;;5146434;27;20452;-38
2021/05/25 12:13:29;;;;;;;4.20;3.80;;;13.50;99.90;;;;;;5145493;27;20472;-37
2021/05/25 12:16:00;;;;;;;4.77;4.23;;;13.50;99.90;;;;;;5146302;27;20459;-39
2021/05/25 12:18:38;;;;;;;3.83;3.63;;;13.50;99.90;;;;;;5146118;27;20505;-38
2021/05/25 12:21:10;;;;;;;4.80;4.40;;;13.50;99.90;;;;;;5132810;27;20453;-39
2021/05/25 12:23:46;;;;;;;4.30;3.90;;;13.50;99.90;;;;;;5146609;27;20445;-38
2021/05/25 12:26:25;;;;;;;4.00;3.60;;;13.50;99.90;;;;;;5146259;27;20504;-37
2021/05/25 12:28:57;;;;;;;4.73;4.40;;;13.50;99.90;;;;;;5145418;27;20445;-38
2021/05/25 12:31:31;;;;;;;4.80;4.40;;;13.50;99.90;;;;;;5146161;27;20502;-39
2021/05/25 12:34:02;;;;;;;4.47;4.10;;;13.50;99.90;;;;;;5143090;27;20488;-36
2021/05/25 12:36:35;;;;;;;4.70;4.10;;;13.50;99.90;;;;;;5145999;27;20480;-38
2021/05/25 12:39:07;;;;;;;4.77;4.27;;;13.50;99.90;;;;;;5145945;27;20437;-35
2021/05/25 12:41:42;;;;;;;4.80;4.40;;;13.50;99.90;;;;;;5145684;27;20455;-39
2021/05/25 12:44:14;;;;;;;4.40;4.10;;;13.50;99.90;;;;;;5145081;27;20474;-39
2021/05/25 12:46:52;;;;;;;3.57;3.37;;;13.50;99.90;;;;;;5145805;27;20831;-37
2021/05/25 12:49:33;;;;;;;5.07;4.57;;;13.50;99.90;;;;;;5145500;27;20471;-36
2021/05/25 12:52:23;;;;;;;4.33;4.03;;;13.50;99.90;;;;;;5145249;27;21036;-37
2021/05/25 12:54:57;;;;;;;4.60;4.20;;;13.50;99.90;;;;;;5145947;27;20551;-37
2021/05/25 12:57:44;;;;;;;4.20;3.90;;;13.50;99.90;;;;;;5142310;27;20479;-39
2021/05/25 13:00:15;;;;;;;4.30;4.00;;;13.60;99.90;;;;;;5139643;27;20936;-39
2021/05/25 13:02:49;;;;;;;4.77;4.00;;;13.60;99.90;;;;;;5143259;27;20453;-38
2021/05/25 13:05:26;;;;;;;3.73;3.53;;;13.70;99.90;;;;;;5144652;27;20456;-39
2021/05/25 13:08:01;;;;;;;4.30;4.00;;;13.80;99.90;;;;;;5145554;27;20497;-39
2021/05/25 13:10:36;;;;;;;3.60;3.40;;;13.70;99.90;;;;;;5144741;27;20444;-38
2021/05/25 13:13:24;;;;;;;4.27;3.97;;;13.80;99.90;;;;;;5145049;27;20474;-38
2021/05/25 13:15:56;;;;;;;3.47;3.27;;;13.80;99.90;;;;;;5144784;27;20599;-39
2021/05/25 13:18:40;;;;;;;4.10;3.80;;;13.90;99.90;;;;;;5144700;27;20506;-38